CheckWX is a tool to help pilots better visualize weather data.  It is not intended as a substitute for an official pre-flight weather briefing.

12:20:03 UTC

EKKA TAF
Karup Airport
Karup, Denmark
TAF EKKA 261108Z 2612/2712 VRB05KT 9999 SCT050 BKN120 TEMPO 2612/2618 4000 SHRA TSRA SCT030 BKN050CB BECMG 2612/2615 27008KT TEMPO 2618/2621 3000 SHRA BR BKN008 BKN050CB TEMPO 2621/2706 1800 BR BKN003

Apr-26@
12:00 UTC

Apr-26 @ 12:00 UTC

Apr-27@
12:00 UTC

Apr-27 @ 12:00 UTC

TAF EKKA 261108Z 2612/2712 VRB05KT 9999 SCT050 BKN120
Wind
  • Variable at 5 KTS
Cloud Levels
  • Scattered at 5,000' AGL
  • Broken at 12,000' AGL

Apr-26@
12:00 UTC

Apr-26 @ 12:00 UTC

Apr-26@
18:00 UTC

Apr-26 @ 18:00 UTC

TEMPO 2612/2618 4000 SHRA TSRA SCT030 BKN050CB

Temporary

Temporary Changes expected for less than half the time period

Conditions
Rain, Thunderstorm, Rain
Cloud Levels
  • Scattered at 3,000' AGL
  • Broken at 5,000' AGL

Apr-26@
12:00 UTC

Apr-26 @ 12:00 UTC

Apr-27@
12:00 UTC

Apr-27 @ 12:00 UTC

BECMG 2612/2615 27008KT

Becoming

Becoming Conditions expected by Fri, Apr 26, 2019 @ 15:00 UTC

Wind
  • 270° at 8 KTS
Cloud Levels
  • Scattered at 5,000' AGL
  • Broken at 12,000' AGL

Apr-26@
18:00 UTC

Apr-26 @ 18:00 UTC

Apr-26@
21:00 UTC

Apr-26 @ 21:00 UTC

TEMPO 2618/2621 3000 SHRA BR BKN008 BKN050CB

Temporary

Temporary Changes expected for less than half the time period

Conditions
Rain, Mist
Cloud Levels
  • Broken at 800' AGL
  • Broken at 5,000' AGL

Apr-26@
21:00 UTC

Apr-26 @ 21:00 UTC

Apr-27@
06:00 UTC

Apr-27 @ 06:00 UTC

TEMPO 2621/2706 1800 BR BKN003

Temporary

Temporary Changes expected for less than half the time period

Conditions
Mist
Cloud Levels
  • Broken at 300' AGL